MT WASHINGTON (MTW)

Elevation: 920' · LOS ANGELES R basin · Operator: Los Angeles County Fire Dept

Query executed Monday at 16:17:52   clock

Provisional data, subject to change.
Select a sensor type for a plot of data.

Earlier

Date   /   Time   RAIN     TEMP     REL HUM     BAR PRE     FUEL MS     FUEL TP     WIND SP     WIND DR     PEAK WS     PEAK WD     SOLAR R     BAT VOL    
(PDT)INCHES   DEG F   %   INCHES   %   DEG F   MPH   DEG   MPH   DEG   W/M^2   VOLTS  
08/31/2014 17:00 5.08 80 55 -- 9 80 -- -- -- -- 226.00 12.6
08/31/2014 18:00 5.08 76 63 -- 9 77 -- -- -- -- 22.00 12.5
08/31/2014 19:00 5.08 73 70 -- 10 72 -- -- -- -- 3.00 12.5
08/31/2014 20:00 5.08 72 74 -- 11 72 -- -- -- -- 0.00 12.5
08/31/2014 21:00 5.08 70 83 -- 13 70 -- -- -- -- 0.00 12.5
08/31/2014 22:00 5.08 68 90 -- 15 68 -- -- -- -- 0.00 12.5
08/31/2014 23:00 5.08 67 92 -- 16 68 -- -- -- -- 0.00 12.4
09/01/2014 00:00 5.08 66 93 -- 17 66 -- -- -- -- 0.00 12.4
09/01/2014 01:00 5.08 67 92 -- 17 68 -- -- -- -- 0.00 12.4
09/01/2014 02:00 5.08 67 91 -- 17 68 -- -- -- -- 0.00 12.4
09/01/2014 03:00 5.08 66 90 -- 17 66 -- -- -- -- 0.00 12.4
09/01/2014 04:00 5.08 67 89 -- 17 67 -- -- -- -- 0.00 12.3
09/01/2014 05:00 5.08 66 90 -- 18 65 -- -- -- -- 0.00 12.3
09/01/2014 06:00 5.08 66 90 -- 18 67 -- -- -- -- 4.00 12.3
09/01/2014 07:00 5.08 70 79 -- 17 70 -- -- -- -- 79.00 13.0
09/01/2014 08:00 5.08 77 62 -- 16 73 -- -- -- -- 334.00 13.5
09/01/2014 09:00 5.08 79 56 -- 14 83 -- -- -- -- 536.00 13.4
09/01/2014 10:00 5.08 81 52 -- 13 90 -- -- -- -- 697.00 13.4
09/01/2014 11:00 5.08 85 39 -- 11 101 -- -- -- -- 814.00 13.4
09/01/2014 12:00 5.08 87 34 -- 9 103 -- -- -- -- 872.00 13.4
09/01/2014 13:00 5.08 89 37 -- 9 103 -- -- -- -- 855.00 13.4
09/01/2014 14:00 5.08 88 33 -- 8 103 -- -- -- -- 782.00 13.4
09/01/2014 15:00 5.08 89 35 -- 8 98 -- -- -- -- 537.00 13.4
09/01/2014 16:00 -- -- -- -- -- -- -- -- -- -- -- --

Later | Latest

Warning! This data is preliminary and subject to revision.

Download Data Now Download Data Now | Show MTW Map | 24 Hours MTW Data | Plot all MTW Sensors | Daily MTW Data | MTW Info